sensor_id;sensor_type;location;lat;lon;timestamp;P1;durP1;ratioP1;P2;durP2;ratioP2
45806;SDS011;31507;51.494;7.518;2023-02-28T00:00:20;5.50;;;3.33;;
45806;SDS011;31507;51.494;7.518;2023-02-28T00:02:46;5.90;;;3.22;;
45806;SDS011;31507;51.494;7.518;2023-02-28T00:05:14;7.25;;;3.00;;
45806;SDS011;31507;51.494;7.518;2023-02-28T00:07:42;6.30;;;3.13;;
45806;SDS011;31507;51.494;7.518;2023-02-28T00:10:09;6.03;;;3.15;;
45806;SDS011;31507;51.494;7.518;2023-02-28T00:12:37;4.63;;;2.55;;
45806;SDS011;31507;51.494;7.518;2023-02-28T00:15:07;8.07;;;3.28;;
45806;SDS011;31507;51.494;7.518;2023-02-28T00:17:35;8.25;;;3.47;;
45806;SDS011;31507;51.494;7.518;2023-02-28T00:20:02;10.73;;;3.28;;
45806;SDS011;31507;51.494;7.518;2023-02-28T00:22:29;7.72;;;3.40;;
45806;SDS011;31507;51.494;7.518;2023-02-28T00:24:55;5.07;;;3.13;;
45806;SDS011;31507;51.494;7.518;2023-02-28T00:27:21;8.55;;;3.45;;
45806;SDS011;31507;51.494;7.518;2023-02-28T00:29:47;6.50;;;2.92;;
45806;SDS011;31507;51.494;7.518;2023-02-28T00:32:12;13.35;;;3.42;;
45806;SDS011;31507;51.494;7.518;2023-02-28T00:34:38;7.15;;;3.58;;
45806;SDS011;31507;51.494;7.518;2023-02-28T00:37:05;6.00;;;3.67;;
45806;SDS011;31507;51.494;7.518;2023-02-28T00:39:33;8.32;;;3.90;;
45806;SDS011;31507;51.494;7.518;2023-02-28T00:42:00;7.32;;;3.78;;
45806;SDS011;31507;51.494;7.518;2023-02-28T00:44:27;5.22;;;3.78;;
45806;SDS011;31507;51.494;7.518;2023-02-28T00:46:53;6.85;;;3.40;;
45806;SDS011;31507;51.494;7.518;2023-02-28T00:49:19;7.45;;;3.88;;
45806;SDS011;31507;51.494;7.518;2023-02-28T00:51:45;10.02;;;3.85;;
45806;SDS011;31507;51.494;7.518;2023-02-28T00:54:11;8.13;;;3.58;;
45806;SDS011;31507;51.494;7.518;2023-02-28T00:56:37;7.28;;;3.60;;
45806;SDS011;31507;51.494;7.518;2023-02-28T00:59:02;7.95;;;3.97;;
45806;SDS011;31507;51.494;7.518;2023-02-28T01:01:28;6.75;;;4.00;;
45806;SDS011;31507;51.494;7.518;2023-02-28T01:03:53;8.45;;;4.30;;
45806;SDS011;31507;51.494;7.518;2023-02-28T01:06:19;7.18;;;4.00;;
45806;SDS011;31507;51.494;7.518;2023-02-28T01:08:45;7.03;;;4.68;;
45806;SDS011;31507;51.494;7.518;2023-02-28T01:11:11;11.57;;;4.53;;
45806;SDS011;31507;51.494;7.518;2023-02-28T01:13:39;9.25;;;4.80;;
45806;SDS011;31507;51.494;7.518;2023-02-28T01:16:05;6.32;;;4.25;;
45806;SDS011;31507;51.494;7.518;2023-02-28T01:18:31;9.13;;;4.05;;
45806;SDS011;31507;51.494;7.518;2023-02-28T01:20:57;6.60;;;4.10;;
45806;SDS011;31507;51.494;7.518;2023-02-28T01:23:23;7.00;;;4.25;;
45806;SDS011;31507;51.494;7.518;2023-02-28T01:25:49;14.95;;;4.82;;
45806;SDS011;31507;51.494;7.518;2023-02-28T01:28:15;9.18;;;3.97;;
45806;SDS011;31507;51.494;7.518;2023-02-28T01:30:41;12.20;;;4.80;;
45806;SDS011;31507;51.494;7.518;2023-02-28T01:33:07;10.77;;;5.20;;
45806;SDS011;31507;51.494;7.518;2023-02-28T01:35:33;11.20;;;5.30;;
45806;SDS011;31507;51.494;7.518;2023-02-28T01:37:59;9.00;;;4.43;;
45806;SDS011;31507;51.494;7.518;2023-02-28T01:40:25;11.77;;;5.50;;
45806;SDS011;31507;51.494;7.518;2023-02-28T01:42:51;10.13;;;5.95;;
45806;SDS011;31507;51.494;7.518;2023-02-28T01:45:18;11.68;;;5.45;;
45806;SDS011;31507;51.494;7.518;2023-02-28T01:47:52;11.00;;;5.70;;
45806;SDS011;31507;51.494;7.518;2023-02-28T01:50:23;8.63;;;5.70;;
45806;SDS011;31507;51.494;7.518;2023-02-28T01:52:53;9.63;;;5.75;;
45806;SDS011;31507;51.494;7.518;2023-02-28T01:55:24;14.32;;;6.50;;
45806;SDS011;31507;51.494;7.518;2023-02-28T01:57:54;11.23;;;5.55;;
45806;SDS011;31507;51.494;7.518;2023-02-28T02:00:25;12.02;;;6.57;;
45806;SDS011;31507;51.494;7.518;2023-02-28T02:02:53;12.85;;;7.13;;
45806;SDS011;31507;51.494;7.518;2023-02-28T02:05:22;9.45;;;6.43;;
45806;SDS011;31507;51.494;7.518;2023-02-28T02:07:54;17.85;;;7.15;;
45806;SDS011;31507;51.494;7.518;2023-02-28T02:18:53;14.63;;;6.60;;
45806;SDS011;31507;51.494;7.518;2023-02-28T02:35:21;14.50;;;5.70;;
45806;SDS011;31507;51.494;7.518;2023-02-28T02:37:57;8.20;;;5.50;;
45806;SDS011;31507;51.494;7.518;2023-02-28T02:40:36;8.45;;;6.00;;
45806;SDS011;31507;51.494;7.518;2023-02-28T02:43:29;17.38;;;7.00;;
45806;SDS011;31507;51.494;7.518;2023-02-28T02:46:06;9.45;;;5.65;;
45806;SDS011;31507;51.494;7.518;2023-02-28T02:48:39;14.05;;;5.80;;
45806;SDS011;31507;51.494;7.518;2023-02-28T02:51:09;11.10;;;6.43;;
45806;SDS011;31507;51.494;7.518;2023-02-28T02:53:41;8.10;;;5.70;;
45806;SDS011;31507;51.494;7.518;2023-02-28T02:56:14;9.25;;;5.63;;
45806;SDS011;31507;51.494;7.518;2023-02-28T02:58:43;9.10;;;5.10;;
45806;SDS011;31507;51.494;7.518;2023-02-28T03:01:17;12.70;;;4.70;;
45806;SDS011;31507;51.494;7.518;2023-02-28T03:03:53;7.75;;;4.88;;
45806;SDS011;31507;51.494;7.518;2023-02-28T03:06:24;8.00;;;5.00;;
45806;SDS011;31507;51.494;7.518;2023-02-28T03:08:50;11.23;;;4.82;;
45806;SDS011;31507;51.494;7.518;2023-02-28T03:11:16;20.23;;;5.45;;
45806;SDS011;31507;51.494;7.518;2023-02-28T03:16:36;20.77;;;5.05;;
45806;SDS011;31507;51.494;7.518;2023-02-28T03:32:44;8.63;;;4.47;;
45806;SDS011;31507;51.494;7.518;2023-02-28T03:41:19;6.78;;;5.13;;
45806;SDS011;31507;51.494;7.518;2023-02-28T03:43:53;8.73;;;5.05;;
45806;SDS011;31507;51.494;7.518;2023-02-28T03:46:31;6.50;;;4.93;;
45806;SDS011;31507;51.494;7.518;2023-02-28T03:51:25;9.65;;;5.93;;
45806;SDS011;31507;51.494;7.518;2023-02-28T03:54:26;8.30;;;5.97;;
45806;SDS011;31507;51.494;7.518;2023-02-28T03:57:11;11.07;;;5.53;;
45806;SDS011;31507;51.494;7.518;2023-02-28T03:59:43;8.85;;;5.20;;
45806;SDS011;31507;51.494;7.518;2023-02-28T04:02:12;9.80;;;6.43;;
45806;SDS011;31507;51.494;7.518;2023-02-28T04:04:38;12.50;;;6.68;;
45806;SDS011;31507;51.494;7.518;2023-02-28T04:07:09;12.32;;;5.85;;
45806;SDS011;31507;51.494;7.518;2023-02-28T04:09:36;9.02;;;6.00;;
45806;SDS011;31507;51.494;7.518;2023-02-28T04:12:02;15.00;;;5.88;;
45806;SDS011;31507;51.494;7.518;2023-02-28T04:14:28;10.63;;;5.43;;
45806;SDS011;31507;51.494;7.518;2023-02-28T04:16:54;9.07;;;5.75;;
45806;SDS011;31507;51.494;7.518;2023-02-28T04:19:20;12.02;;;5.63;;
45806;SDS011;31507;51.494;7.518;2023-02-28T04:21:46;18.13;;;5.38;;
45806;SDS011;31507;51.494;7.518;2023-02-28T04:24:16;10.27;;;5.40;;
45806;SDS011;31507;51.494;7.518;2023-02-28T04:26:52;11.27;;;4.32;;
45806;SDS011;31507;51.494;7.518;2023-02-28T04:29:24;8.60;;;5.40;;
45806;SDS011;31507;51.494;7.518;2023-02-28T04:31:51;7.20;;;4.93;;
45806;SDS011;31507;51.494;7.518;2023-02-28T04:34:18;8.80;;;4.75;;
45806;SDS011;31507;51.494;7.518;2023-02-28T04:36:46;11.77;;;5.43;;
45806;SDS011;31507;51.494;7.518;2023-02-28T04:39:14;11.48;;;5.50;;
45806;SDS011;31507;51.494;7.518;2023-02-28T04:41:40;6.43;;;4.32;;
45806;SDS011;31507;51.494;7.518;2023-02-28T04:44:06;10.43;;;5.70;;
45806;SDS011;31507;51.494;7.518;2023-02-28T04:46:31;15.93;;;5.68;;
45806;SDS011;31507;51.494;7.518;2023-02-28T04:48:57;7.30;;;4.43;;
45806;SDS011;31507;51.494;7.518;2023-02-28T04:51:23;6.45;;;5.15;;
45806;SDS011;31507;51.494;7.518;2023-02-28T04:53:48;10.52;;;5.25;;
45806;SDS011;31507;51.494;7.518;2023-02-28T04:56:15;8.55;;;5.05;;
45806;SDS011;31507;51.494;7.518;2023-02-28T04:58:41;8.82;;;4.50;;
45806;SDS011;31507;51.494;7.518;2023-02-28T05:04:03;11.98;;;4.85;;
45806;SDS011;31507;51.494;7.518;2023-02-28T05:06:30;10.07;;;5.80;;
45806;SDS011;31507;51.494;7.518;2023-02-28T05:08:57;9.23;;;5.55;;
45806;SDS011;31507;51.494;7.518;2023-02-28T05:13:59;8.00;;;5.03;;
45806;SDS011;31507;51.494;7.518;2023-02-28T05:16:30;11.27;;;6.80;;
45806;SDS011;31507;51.494;7.518;2023-02-28T05:18:56;10.55;;;6.80;;
45806;SDS011;31507;51.494;7.518;2023-02-28T05:21:32;13.00;;;6.80;;
45806;SDS011;31507;51.494;7.518;2023-02-28T05:24:00;13.65;;;7.72;;
45806;SDS011;31507;51.494;7.518;2023-02-28T05:26:28;12.65;;;7.82;;
45806;SDS011;31507;51.494;7.518;2023-02-28T05:28:54;10.18;;;7.85;;
45806;SDS011;31507;51.494;7.518;2023-02-28T05:31:20;12.77;;;8.95;;
45806;SDS011;31507;51.494;7.518;2023-02-28T05:33:46;15.38;;;8.85;;
45806;SDS011;31507;51.494;7.518;2023-02-28T05:36:12;12.38;;;8.88;;
45806;SDS011;31507;51.494;7.518;2023-02-28T05:38:38;17.50;;;8.93;;
45806;SDS011;31507;51.494;7.518;2023-02-28T05:41:07;14.00;;;8.93;;
45806;SDS011;31507;51.494;7.518;2023-02-28T05:43:34;13.77;;;7.35;;
45806;SDS011;31507;51.494;7.518;2023-02-28T05:46:07;12.38;;;8.65;;
45806;SDS011;31507;51.494;7.518;2023-02-28T05:51:01;14.60;;;8.93;;
45806;SDS011;31507;51.494;7.518;2023-02-28T05:53:28;16.83;;;8.45;;
45806;SDS011;31507;51.494;7.518;2023-02-28T05:55:54;15.05;;;8.40;;
45806;SDS011;31507;51.494;7.518;2023-02-28T05:58:20;13.02;;;7.45;;
45806;SDS011;31507;51.494;7.518;2023-02-28T06:00:46;15.05;;;8.63;;
45806;SDS011;31507;51.494;7.518;2023-02-28T06:03:12;14.20;;;8.57;;
45806;SDS011;31507;51.494;7.518;2023-02-28T06:05:37;11.85;;;8.68;;
45806;SDS011;31507;51.494;7.518;2023-02-28T06:08:03;18.75;;;9.13;;
45806;SDS011;31507;51.494;7.518;2023-02-28T06:10:30;13.30;;;8.98;;
45806;SDS011;31507;51.494;7.518;2023-02-28T06:12:59;14.00;;;8.15;;
45806;SDS011;31507;51.494;7.518;2023-02-28T06:15:25;15.48;;;9.00;;
45806;SDS011;31507;51.494;7.518;2023-02-28T06:17:51;12.63;;;7.70;;
45806;SDS011;31507;51.494;7.518;2023-02-28T06:20:17;13.50;;;8.43;;
45806;SDS011;31507;51.494;7.518;2023-02-28T06:22:43;10.73;;;7.93;;
45806;SDS011;31507;51.494;7.518;2023-02-28T06:25:09;10.68;;;7.85;;
45806;SDS011;31507;51.494;7.518;2023-02-28T06:27:35;13.35;;;8.05;;
45806;SDS011;31507;51.494;7.518;2023-02-28T06:30:01;14.80;;;7.80;;
45806;SDS011;31507;51.494;7.518;2023-02-28T06:32:26;17.30;;;8.55;;
45806;SDS011;31507;51.494;7.518;2023-02-28T06:34:52;18.45;;;8.80;;
45806;SDS011;31507;51.494;7.518;2023-02-28T06:37:18;13.38;;;9.30;;
45806;SDS011;31507;51.494;7.518;2023-02-28T06:39:44;15.82;;;9.13;;
45806;SDS011;31507;51.494;7.518;2023-02-28T06:42:09;17.20;;;9.35;;
45806;SDS011;31507;51.494;7.518;2023-02-28T06:44:35;19.15;;;10.43;;
45806;SDS011;31507;51.494;7.518;2023-02-28T06:47:02;17.50;;;9.60;;
45806;SDS011;31507;51.494;7.518;2023-02-28T06:49:32;14.45;;;8.95;;
45806;SDS011;31507;51.494;7.518;2023-02-28T06:51:59;14.85;;;9.18;;
45806;SDS011;31507;51.494;7.518;2023-02-28T06:54:24;15.80;;;8.27;;
45806;SDS011;31507;51.494;7.518;2023-02-28T06:56:50;30.52;;;9.40;;
45806;SDS011;31507;51.494;7.518;2023-02-28T06:59:16;30.33;;;9.15;;
45806;SDS011;31507;51.494;7.518;2023-02-28T07:01:41;22.92;;;9.20;;
45806;SDS011;31507;51.494;7.518;2023-02-28T07:04:07;20.52;;;8.02;;
45806;SDS011;31507;51.494;7.518;2023-02-28T07:06:33;14.63;;;7.88;;
45806;SDS011;31507;51.494;7.518;2023-02-28T07:08:59;15.50;;;7.30;;
45806;SDS011;31507;51.494;7.518;2023-02-28T07:11:25;10.77;;;7.03;;
45806;SDS011;31507;51.494;7.518;2023-02-28T07:13:52;13.50;;;7.78;;
45806;SDS011;31507;51.494;7.518;2023-02-28T07:16:19;9.68;;;6.70;;
45806;SDS011;31507;51.494;7.518;2023-02-28T07:18:44;14.40;;;6.75;;
45806;SDS011;31507;51.494;7.518;2023-02-28T07:21:10;13.65;;;6.30;;
45806;SDS011;31507;51.494;7.518;2023-02-28T07:23:37;12.20;;;6.95;;
45806;SDS011;31507;51.494;7.518;2023-02-28T07:26:04;8.23;;;6.63;;
45806;SDS011;31507;51.494;7.518;2023-02-28T07:28:30;16.40;;;6.80;;
45806;SDS011;31507;51.494;7.518;2023-02-28T07:30:56;13.68;;;6.82;;
45806;SDS011;31507;51.494;7.518;2023-02-28T07:33:21;7.85;;;5.80;;
45806;SDS011;31507;51.494;7.518;2023-02-28T07:35:48;13.40;;;6.53;;
45806;SDS011;31507;51.494;7.518;2023-02-28T07:38:14;17.00;;;5.55;;
45806;SDS011;31507;51.494;7.518;2023-02-28T07:40:40;9.20;;;4.70;;
45806;SDS011;31507;51.494;7.518;2023-02-28T07:43:06;13.88;;;5.13;;
45806;SDS011;31507;51.494;7.518;2023-02-28T07:45:31;9.60;;;5.18;;
45806;SDS011;31507;51.494;7.518;2023-02-28T07:47:59;8.13;;;4.70;;
45806;SDS011;31507;51.494;7.518;2023-02-28T07:50:26;17.25;;;5.88;;
45806;SDS011;31507;51.494;7.518;2023-02-28T07:52:55;6.10;;;4.30;;
45806;SDS011;31507;51.494;7.518;2023-02-28T07:55:22;8.13;;;4.85;;
45806;SDS011;31507;51.494;7.518;2023-02-28T07:57:48;10.98;;;4.25;;
45806;SDS011;31507;51.494;7.518;2023-02-28T08:00:13;7.18;;;3.80;;
45806;SDS011;31507;51.494;7.518;2023-02-28T08:02:39;13.52;;;4.70;;
45806;SDS011;31507;51.494;7.518;2023-02-28T08:05:05;8.57;;;4.50;;
45806;SDS011;31507;51.494;7.518;2023-02-28T08:07:31;5.55;;;3.90;;
45806;SDS011;31507;51.494;7.518;2023-02-28T08:09:58;7.43;;;4.13;;
45806;SDS011;31507;51.494;7.518;2023-02-28T08:12:24;9.80;;;3.65;;
45806;SDS011;31507;51.494;7.518;2023-02-28T08:14:50;9.60;;;3.85;;
45806;SDS011;31507;51.494;7.518;2023-02-28T08:17:15;11.07;;;3.83;;
45806;SDS011;31507;51.494;7.518;2023-02-28T08:19:41;7.78;;;3.50;;
45806;SDS011;31507;51.494;7.518;2023-02-28T08:22:07;13.65;;;4.47;;
45806;SDS011;31507;51.494;7.518;2023-02-28T08:24:32;12.65;;;4.13;;
45806;SDS011;31507;51.494;7.518;2023-02-28T08:26:58;7.97;;;4.30;;
45806;SDS011;31507;51.494;7.518;2023-02-28T08:29:24;12.75;;;3.97;;
45806;SDS011;31507;51.494;7.518;2023-02-28T08:31:50;9.52;;;3.03;;
45806;SDS011;31507;51.494;7.518;2023-02-28T08:34:15;4.28;;;2.75;;
45806;SDS011;31507;51.494;7.518;2023-02-28T08:36:41;8.15;;;2.65;;
45806;SDS011;31507;51.494;7.518;2023-02-28T08:39:09;8.70;;;2.70;;
45806;SDS011;31507;51.494;7.518;2023-02-28T08:41:35;9.10;;;2.95;;
45806;SDS011;31507;51.494;7.518;2023-02-28T08:44:02;5.32;;;3.05;;
45806;SDS011;31507;51.494;7.518;2023-02-28T08:46:28;4.78;;;2.40;;
45806;SDS011;31507;51.494;7.518;2023-02-28T08:48:56;6.57;;;2.30;;
45806;SDS011;31507;51.494;7.518;2023-02-28T08:51:27;3.20;;;2.33;;
45806;SDS011;31507;51.494;7.518;2023-02-28T08:53:54;7.50;;;2.72;;
45806;SDS011;31507;51.494;7.518;2023-02-28T08:56:22;3.38;;;2.20;;
45806;SDS011;31507;51.494;7.518;2023-02-28T08:58:48;7.82;;;2.50;;
45806;SDS011;31507;51.494;7.518;2023-02-28T09:01:16;6.45;;;2.78;;
45806;SDS011;31507;51.494;7.518;2023-02-28T09:03:47;6.38;;;2.60;;
45806;SDS011;31507;51.494;7.518;2023-02-28T09:06:14;3.63;;;2.17;;
45806;SDS011;31507;51.494;7.518;2023-02-28T09:08:41;5.63;;;2.30;;
45806;SDS011;31507;51.494;7.518;2023-02-28T09:11:07;5.20;;;2.20;;
45806;SDS011;31507;51.494;7.518;2023-02-28T09:13:33;2.17;;;1.95;;
45806;SDS011;31507;51.494;7.518;2023-02-28T09:16:00;5.80;;;2.50;;
45806;SDS011;31507;51.494;7.518;2023-02-28T09:18:27;3.67;;;2.30;;
45806;SDS011;31507;51.494;7.518;2023-02-28T09:20:53;5.60;;;2.00;;
45806;SDS011;31507;51.494;7.518;2023-02-28T09:23:19;4.03;;;1.88;;
45806;SDS011;31507;51.494;7.518;2023-02-28T09:25:46;3.92;;;2.22;;
45806;SDS011;31507;51.494;7.518;2023-02-28T09:28:16;2.78;;;1.95;;
45806;SDS011;31507;51.494;7.518;2023-02-28T09:30:44;8.98;;;1.83;;
45806;SDS011;31507;51.494;7.518;2023-02-28T09:33:11;2.75;;;1.90;;
45806;SDS011;31507;51.494;7.518;2023-02-28T09:35:37;3.22;;;1.65;;
45806;SDS011;31507;51.494;7.518;2023-02-28T09:38:03;3.17;;;1.90;;
45806;SDS011;31507;51.494;7.518;2023-02-28T09:40:30;3.03;;;2.00;;
45806;SDS011;31507;51.494;7.518;2023-02-28T09:42:56;6.70;;;1.80;;
45806;SDS011;31507;51.494;7.518;2023-02-28T09:48:11;7.43;;;2.17;;
45806;SDS011;31507;51.494;7.518;2023-02-28T09:50:41;3.13;;;2.10;;
45806;SDS011;31507;51.494;7.518;2023-02-28T09:53:34;4.43;;;1.98;;
45806;SDS011;31507;51.494;7.518;2023-02-28T09:56:19;3.20;;;1.98;;
45806;SDS011;31507;51.494;7.518;2023-02-28T10:01:47;8.20;;;2.63;;
45806;SDS011;31507;51.494;7.518;2023-02-28T10:04:59;5.50;;;2.17;;
45806;SDS011;31507;51.494;7.518;2023-02-28T10:12:53;3.00;;;1.63;;
45806;SDS011;31507;51.494;7.518;2023-02-28T10:15:23;3.63;;;1.73;;
45806;SDS011;31507;51.494;7.518;2023-02-28T10:17:54;5.03;;;1.88;;
45806;SDS011;31507;51.494;7.518;2023-02-28T10:20:23;4.45;;;1.70;;
45806;SDS011;31507;51.494;7.518;2023-02-28T10:23:01;2.95;;;1.50;;
45806;SDS011;31507;51.494;7.518;2023-02-28T10:25:39;3.22;;;1.60;;
45806;SDS011;31507;51.494;7.518;2023-02-28T10:28:13;3.83;;;1.60;;
45806;SDS011;31507;51.494;7.518;2023-02-28T10:30:45;3.08;;;1.83;;
45806;SDS011;31507;51.494;7.518;2023-02-28T10:33:23;2.25;;;1.50;;
45806;SDS011;31507;51.494;7.518;2023-02-28T10:35:49;5.75;;;1.75;;
45806;SDS011;31507;51.494;7.518;2023-02-28T10:38:26;4.03;;;1.55;;
45806;SDS011;31507;51.494;7.518;2023-02-28T10:41:03;2.85;;;1.60;;
45806;SDS011;31507;51.494;7.518;2023-02-28T10:43:28;2.88;;;1.80;;
45806;SDS011;31507;51.494;7.518;2023-02-28T10:45:58;4.78;;;1.50;;
45806;SDS011;31507;51.494;7.518;2023-02-28T10:48:36;3.00;;;1.70;;
45806;SDS011;31507;51.494;7.518;2023-02-28T10:51:02;2.35;;;1.42;;
45806;SDS011;31507;51.494;7.518;2023-02-28T10:53:31;1.95;;;1.52;;
45806;SDS011;31507;51.494;7.518;2023-02-28T10:56:09;4.85;;;1.35;;
45806;SDS011;31507;51.494;7.518;2023-02-28T11:04:17;2.53;;;1.60;;
45806;SDS011;31507;51.494;7.518;2023-02-28T11:06:44;4.22;;;1.73;;
45806;SDS011;31507;51.494;7.518;2023-02-28T11:09:25;2.00;;;1.25;;
45806;SDS011;31507;51.494;7.518;2023-02-28T11:11:55;2.45;;;1.50;;
45806;SDS011;31507;51.494;7.518;2023-02-28T11:14:22;2.33;;;1.60;;
45806;SDS011;31507;51.494;7.518;2023-02-28T11:16:51;4.75;;;1.77;;
45806;SDS011;31507;51.494;7.518;2023-02-28T11:19:25;1.95;;;1.65;;
45806;SDS011;31507;51.494;7.518;2023-02-28T11:22:05;2.88;;;1.50;;
45806;SDS011;31507;51.494;7.518;2023-02-28T11:27:02;2.58;;;1.80;;
45806;SDS011;31507;51.494;7.518;2023-02-28T11:29:29;4.28;;;1.88;;
45806;SDS011;31507;51.494;7.518;2023-02-28T11:32:04;3.40;;;1.50;;
45806;SDS011;31507;51.494;7.518;2023-02-28T11:34:34;3.85;;;1.60;;
45806;SDS011;31507;51.494;7.518;2023-02-28T11:37:02;1.77;;;1.42;;
45806;SDS011;31507;51.494;7.518;2023-02-28T11:39:34;7.45;;;1.60;;
45806;SDS011;31507;51.494;7.518;2023-02-28T11:47:17;11.50;;;1.85;;
45806;SDS011;31507;51.494;7.518;2023-02-28T11:50:00;2.10;;;1.38;;
45806;SDS011;31507;51.494;7.518;2023-02-28T11:52:52;3.03;;;1.50;;
45806;SDS011;31507;51.494;7.518;2023-02-28T11:58:27;2.38;;;1.30;;
45806;SDS011;31507;51.494;7.518;2023-02-28T12:07:03;2.45;;;1.60;;
45806;SDS011;31507;51.494;7.518;2023-02-28T12:28:40;2.67;;;1.70;;
45806;SDS011;31507;51.494;7.518;2023-02-28T12:31:17;5.35;;;2.00;;
45806;SDS011;31507;51.494;7.518;2023-02-28T12:33:50;2.78;;;2.15;;
45806;SDS011;31507;51.494;7.518;2023-02-28T12:36:19;4.72;;;1.90;;
45806;SDS011;31507;51.494;7.518;2023-02-28T12:38:49;3.03;;;1.80;;
45806;SDS011;31507;51.494;7.518;2023-02-28T12:41:48;3.92;;;1.65;;
45806;SDS011;31507;51.494;7.518;2023-02-28T12:44:28;6.00;;;1.77;;
45806;SDS011;31507;51.494;7.518;2023-02-28T12:47:00;2.90;;;1.77;;
45806;SDS011;31507;51.494;7.518;2023-02-28T12:49:31;13.70;;;1.98;;
45806;SDS011;31507;51.494;7.518;2023-02-28T12:52:21;2.15;;;1.70;;
45806;SDS011;31507;51.494;7.518;2023-02-28T12:55:12;5.00;;;2.08;;
45806;SDS011;31507;51.494;7.518;2023-02-28T12:57:57;1.77;;;1.60;;
45806;SDS011;31507;51.494;7.518;2023-02-28T13:00:36;4.32;;;2.40;;
45806;SDS011;31507;51.494;7.518;2023-02-28T13:11:23;14.48;;;2.08;;
45806;SDS011;31507;51.494;7.518;2023-02-28T13:14:29;3.95;;;1.70;;
45806;SDS011;31507;51.494;7.518;2023-02-28T13:17:09;4.75;;;2.20;;
45806;SDS011;31507;51.494;7.518;2023-02-28T13:22:05;2.42;;;1.80;;
45806;SDS011;31507;51.494;7.518;2023-02-28T13:24:45;2.33;;;1.60;;
45806;SDS011;31507;51.494;7.518;2023-02-28T13:46:36;4.45;;;1.80;;
45806;SDS011;31507;51.494;7.518;2023-02-28T13:51:51;3.55;;;2.20;;
45806;SDS011;31507;51.494;7.518;2023-02-28T13:58:09;7.93;;;2.42;;
45806;SDS011;31507;51.494;7.518;2023-02-28T14:06:07;2.75;;;1.90;;
45806;SDS011;31507;51.494;7.518;2023-02-28T14:08:47;5.55;;;2.22;;
45806;SDS011;31507;51.494;7.518;2023-02-28T14:11:39;5.15;;;2.10;;
45806;SDS011;31507;51.494;7.518;2023-02-28T14:14:07;4.63;;;2.00;;
45806;SDS011;31507;51.494;7.518;2023-02-28T14:16:47;2.80;;;1.98;;
45806;SDS011;31507;51.494;7.518;2023-02-28T14:24:49;3.75;;;2.20;;
45806;SDS011;31507;51.494;7.518;2023-02-28T14:36:16;8.23;;;2.20;;
45806;SDS011;31507;51.494;7.518;2023-02-28T14:38:57;3.70;;;2.25;;
45806;SDS011;31507;51.494;7.518;2023-02-28T14:41:38;4.93;;;2.00;;
45806;SDS011;31507;51.494;7.518;2023-02-28T14:46:50;3.33;;;2.17;;
45806;SDS011;31507;51.494;7.518;2023-02-28T14:49:29;4.43;;;1.90;;
45806;SDS011;31507;51.494;7.518;2023-02-28T14:52:05;6.25;;;2.40;;
45806;SDS011;31507;51.494;7.518;2023-02-28T14:54:35;3.45;;;2.15;;
45806;SDS011;31507;51.494;7.518;2023-02-28T14:57:02;5.40;;;2.38;;
45806;SDS011;31507;51.494;7.518;2023-02-28T14:59:29;4.20;;;2.65;;
45806;SDS011;31507;51.494;7.518;2023-02-28T15:07:42;3.63;;;2.22;;
45806;SDS011;31507;51.494;7.518;2023-02-28T15:12:49;5.45;;;2.17;;
45806;SDS011;31507;51.494;7.518;2023-02-28T15:15:21;5.32;;;2.60;;
45806;SDS011;31507;51.494;7.518;2023-02-28T15:17:51;4.85;;;2.25;;
45806;SDS011;31507;51.494;7.518;2023-02-28T15:20:21;2.70;;;2.17;;
45806;SDS011;31507;51.494;7.518;2023-02-28T15:22:49;2.45;;;2.25;;
45806;SDS011;31507;51.494;7.518;2023-02-28T15:25:18;5.88;;;2.90;;
45806;SDS011;31507;51.494;7.518;2023-02-28T15:27:50;3.58;;;2.17;;
45806;SDS011;31507;51.494;7.518;2023-02-28T15:30:19;3.50;;;2.13;;
45806;SDS011;31507;51.494;7.518;2023-02-28T15:33:17;4.63;;;2.72;;
45806;SDS011;31507;51.494;7.518;2023-02-28T15:35:44;3.88;;;2.45;;
45806;SDS011;31507;51.494;7.518;2023-02-28T15:40:53;3.15;;;2.10;;
45806;SDS011;31507;51.494;7.518;2023-02-28T15:43:27;9.52;;;2.40;;
45806;SDS011;31507;51.494;7.518;2023-02-28T15:45:58;8.65;;;2.72;;
45806;SDS011;31507;51.494;7.518;2023-02-28T15:48:33;5.55;;;2.20;;
45806;SDS011;31507;51.494;7.518;2023-02-28T15:51:17;6.18;;;2.42;;
45806;SDS011;31507;51.494;7.518;2023-02-28T15:56:30;4.47;;;2.17;;
45806;SDS011;31507;51.494;7.518;2023-02-28T15:58:59;10.85;;;2.60;;
45806;SDS011;31507;51.494;7.518;2023-02-28T16:01:28;5.00;;;2.53;;
45806;SDS011;31507;51.494;7.518;2023-02-28T16:04:05;3.60;;;2.45;;
45806;SDS011;31507;51.494;7.518;2023-02-28T16:09:14;3.88;;;2.40;;
45806;SDS011;31507;51.494;7.518;2023-02-28T16:11:51;4.20;;;2.55;;
45806;SDS011;31507;51.494;7.518;2023-02-28T16:14:20;9.60;;;2.75;;
45806;SDS011;31507;51.494;7.518;2023-02-28T16:17:02;5.05;;;2.25;;
45806;SDS011;31507;51.494;7.518;2023-02-28T16:19:33;4.53;;;2.40;;
45806;SDS011;31507;51.494;7.518;2023-02-28T16:21:59;12.30;;;2.90;;
45806;SDS011;31507;51.494;7.518;2023-02-28T16:24:26;3.05;;;2.15;;
45806;SDS011;31507;51.494;7.518;2023-02-28T16:26:52;3.75;;;2.35;;
45806;SDS011;31507;51.494;7.518;2023-02-28T16:29:30;6.80;;;3.15;;
45806;SDS011;31507;51.494;7.518;2023-02-28T16:31:58;9.25;;;2.42;;
45806;SDS011;31507;51.494;7.518;2023-02-28T16:34:25;6.18;;;2.75;;
45806;SDS011;31507;51.494;7.518;2023-02-28T16:36:51;8.82;;;2.47;;
45806;SDS011;31507;51.494;7.518;2023-02-28T16:39:18;5.55;;;2.65;;
45806;SDS011;31507;51.494;7.518;2023-02-28T16:41:45;5.72;;;2.20;;
45806;SDS011;31507;51.494;7.518;2023-02-28T16:44:14;5.80;;;2.30;;
45806;SDS011;31507;51.494;7.518;2023-02-28T16:46:54;8.82;;;2.50;;
45806;SDS011;31507;51.494;7.518;2023-02-28T16:49:20;6.18;;;2.90;;
45806;SDS011;31507;51.494;7.518;2023-02-28T16:51:45;5.15;;;2.55;;
45806;SDS011;31507;51.494;7.518;2023-02-28T16:54:11;5.05;;;2.80;;
45806;SDS011;31507;51.494;7.518;2023-02-28T16:56:37;3.60;;;2.53;;
45806;SDS011;31507;51.494;7.518;2023-02-28T16:59:05;5.60;;;2.53;;
45806;SDS011;31507;51.494;7.518;2023-02-28T17:01:33;6.10;;;2.60;;
45806;SDS011;31507;51.494;7.518;2023-02-28T17:03:58;4.57;;;2.65;;
45806;SDS011;31507;51.494;7.518;2023-02-28T17:06:26;6.80;;;2.63;;
45806;SDS011;31507;51.494;7.518;2023-02-28T17:08:55;5.55;;;2.88;;
45806;SDS011;31507;51.494;7.518;2023-02-28T17:11:23;8.77;;;2.80;;
45806;SDS011;31507;51.494;7.518;2023-02-28T17:13:50;7.30;;;2.47;;
45806;SDS011;31507;51.494;7.518;2023-02-28T17:16:29;5.68;;;2.95;;
45806;SDS011;31507;51.494;7.518;2023-02-28T17:18:57;7.85;;;2.97;;
45806;SDS011;31507;51.494;7.518;2023-02-28T17:21:24;4.65;;;2.72;;
45806;SDS011;31507;51.494;7.518;2023-02-28T17:23:50;6.35;;;2.75;;
45806;SDS011;31507;51.494;7.518;2023-02-28T17:26:17;3.67;;;2.72;;
45806;SDS011;31507;51.494;7.518;2023-02-28T17:28:49;5.97;;;2.80;;
45806;SDS011;31507;51.494;7.518;2023-02-28T17:31:16;9.00;;;2.50;;
45806;SDS011;31507;51.494;7.518;2023-02-28T17:33:42;4.70;;;2.80;;
45806;SDS011;31507;51.494;7.518;2023-02-28T17:36:14;6.03;;;2.70;;
45806;SDS011;31507;51.494;7.518;2023-02-28T17:38:42;8.63;;;2.67;;
45806;SDS011;31507;51.494;7.518;2023-02-28T17:41:11;3.45;;;2.38;;
45806;SDS011;31507;51.494;7.518;2023-02-28T17:43:37;5.50;;;3.15;;
45806;SDS011;31507;51.494;7.518;2023-02-28T17:46:03;5.25;;;2.75;;
45806;SDS011;31507;51.494;7.518;2023-02-28T17:48:32;8.60;;;2.97;;
45806;SDS011;31507;51.494;7.518;2023-02-28T17:51:00;12.13;;;3.28;;
45806;SDS011;31507;51.494;7.518;2023-02-28T17:53:26;4.68;;;2.75;;
45806;SDS011;31507;51.494;7.518;2023-02-28T17:55:52;4.70;;;2.88;;
45806;SDS011;31507;51.494;7.518;2023-02-28T17:58:20;3.67;;;2.65;;
45806;SDS011;31507;51.494;7.518;2023-02-28T18:00:46;5.82;;;3.13;;